createdAt,value
2018-12-26T10:00:58.445Z,0.04
2018-12-26T10:01:58.435Z,0.12
2018-12-26T10:02:58.425Z,0.19
2018-12-26T10:03:58.415Z,0.28
2018-12-26T10:04:58.402Z,0.30
2018-12-26T10:05:58.391Z,0.31
2018-12-26T10:06:58.383Z,0.34
2018-12-26T10:07:58.369Z,0.40
2018-12-26T10:08:58.359Z,0.41
2018-12-26T10:09:58.347Z,0.43
2018-12-26T10:10:58.340Z,0.45
2018-12-26T10:11:58.329Z,0.51
2018-12-26T10:12:58.317Z,0.44
2018-12-26T10:13:58.306Z,0.40
2018-12-26T10:14:58.297Z,0.40
2018-12-26T10:15:58.282Z,0.43
2018-12-26T10:16:58.273Z,0.44
2018-12-26T10:17:58.261Z,0.48
2018-12-26T10:18:58.251Z,0.49
2018-12-26T10:19:58.242Z,0.44
2018-12-26T10:20:58.235Z,0.43
2018-12-26T10:21:58.217Z,0.48
2018-12-26T10:22:58.208Z,0.44
2018-12-26T10:23:58.198Z,0.52
2018-12-26T10:24:58.186Z,0.58
2018-12-26T10:25:58.175Z,0.62
2018-12-26T10:26:58.165Z,0.62
2018-12-26T10:27:58.155Z,0.62
2018-12-26T10:29:01.059Z,0.61
2018-12-26T10:29:58.133Z,0.61
2018-12-26T10:30:58.122Z,0.62
2018-12-26T10:31:58.110Z,0.62
2018-12-26T10:32:58.100Z,0.63
2018-12-26T10:33:58.091Z,0.67
2018-12-26T10:34:58.078Z,0.73
2018-12-26T10:35:58.067Z,0.77
2018-12-26T10:36:58.055Z,0.80
2018-12-26T10:37:58.045Z,0.88
2018-12-26T10:38:58.038Z,0.88
2018-12-26T10:39:58.127Z,0.91
2018-12-26T10:40:58.016Z,0.92
2018-12-26T10:41:58.003Z,0.98
2018-12-26T10:42:57.992Z,1.06
2018-12-26T10:43:57.982Z,1.12
2018-12-26T10:44:57.971Z,1.19
2018-12-26T10:45:57.966Z,1.29
2018-12-26T10:46:57.959Z,1.28
2018-12-26T10:47:57.939Z,1.23
2018-12-26T10:48:57.927Z,1.20
2018-12-26T10:49:57.916Z,1.20
2018-12-26T10:50:57.905Z,1.23
2018-12-26T10:51:57.895Z,1.20
2018-12-26T10:52:57.884Z,1.17
2018-12-26T10:53:57.872Z,1.17
2018-12-26T10:54:57.860Z,1.20
2018-12-26T10:55:57.850Z,1.20
2018-12-26T10:56:57.843Z,1.16
2018-12-26T10:57:57.829Z,1.13
2018-12-26T10:58:59.926Z,1.12
2018-12-26T10:59:57.809Z,1.12
2018-12-26T11:00:57.797Z,1.12
2018-12-26T11:01:57.786Z,1.17
2018-12-26T11:02:57.774Z,1.13
2018-12-26T11:03:57.765Z,1.13
2018-12-26T11:04:57.757Z,1.13
2018-12-26T11:05:57.742Z,1.10
2018-12-26T11:06:57.731Z,1.13
2018-12-26T11:07:57.720Z,1.19
2018-12-26T11:08:57.710Z,1.25
2018-12-26T11:09:57.699Z,1.32
2018-12-26T11:10:57.687Z,1.34
2018-12-26T11:11:57.774Z,1.35
2018-12-26T11:12:57.666Z,1.38
2018-12-26T11:13:57.656Z,1.42
2018-12-26T11:14:57.642Z,1.47
2018-12-26T11:15:57.632Z,1.53
2018-12-26T11:16:57.622Z,1.53
2018-12-26T11:17:57.612Z,1.54
2018-12-26T11:18:57.599Z,1.53
2018-12-26T11:19:57.588Z,1.54
2018-12-26T11:20:57.582Z,1.60
2018-12-26T11:21:57.568Z,1.64
2018-12-26T11:22:57.557Z,1.68
2018-12-26T11:23:57.545Z,1.72
2018-12-26T11:24:57.538Z,1.72
2018-12-26T11:25:57.525Z,1.74
2018-12-26T11:26:57.515Z,1.77
2018-12-26T11:27:57.504Z,1.74
2018-12-26T11:28:57.494Z,1.70
2018-12-26T11:29:57.481Z,1.70
2018-12-26T11:30:57.470Z,1.70
2018-12-26T11:31:57.457Z,1.68
2018-12-26T11:32:57.448Z,1.71
2018-12-26T11:33:57.435Z,1.68
2018-12-26T11:34:57.424Z,1.68
2018-12-26T11:35:57.417Z,1.67
2018-12-26T11:36:57.406Z,1.68
2018-12-26T11:37:57.398Z,1.64
2018-12-26T11:38:57.382Z,1.56
2018-12-26T11:39:57.372Z,1.60
2018-12-26T11:40:57.362Z,1.61
2018-12-26T11:41:57.351Z,1.65
2018-12-26T11:42:57.339Z,1.67
2018-12-26T11:43:57.328Z,1.65
2018-12-26T11:44:57.318Z,1.65
2018-12-26T11:45:57.308Z,1.63
2018-12-26T11:46:57.294Z,1.63
2018-12-26T11:47:57.285Z,1.65
2018-12-26T11:48:57.275Z,1.68
2018-12-26T11:49:57.265Z,1.71
2018-12-26T11:50:57.252Z,1.75
2018-12-26T11:51:57.241Z,1.82
2018-12-26T11:52:57.232Z,1.88
2018-12-26T11:53:57.218Z,1.93
2018-12-26T11:54:57.212Z,2.00
2018-12-26T11:55:57.195Z,2.04
2018-12-26T11:56:57.186Z,2.06
2018-12-26T11:57:57.177Z,2.06
2018-12-26T11:58:57.164Z,2.06
2018-12-26T11:59:57.241Z,2.04
2018-12-26T12:00:57.142Z,2.00
2018-12-26T12:01:57.133Z,2.00
2018-12-26T12:02:57.120Z,1.97
2018-12-26T12:03:57.114Z,1.93
2018-12-26T12:04:57.097Z,1.92
2018-12-26T12:05:57.091Z,1.90
2018-12-26T12:06:57.076Z,1.89
2018-12-26T12:07:57.065Z,1.86
2018-12-26T12:08:57.053Z,1.86
2018-12-26T12:09:57.042Z,1.85
2018-12-26T12:10:57.032Z,1.85
2018-12-26T12:11:57.023Z,1.88
2018-12-26T12:12:57.010Z,1.89
2018-12-26T12:13:56.997Z,1.93
2018-12-26T12:14:56.988Z,1.92
2018-12-26T12:15:56.975Z,1.89
2018-12-26T12:16:56.963Z,1.88
2018-12-26T12:17:56.955Z,1.88
2018-12-26T12:18:56.943Z,1.85
2018-12-26T12:19:56.932Z,1.83
2018-12-26T12:20:56.922Z,1.82
2018-12-26T12:21:56.911Z,1.77
2018-12-26T12:22:56.901Z,1.79
2018-12-26T12:23:56.887Z,1.79
2018-12-26T12:24:56.878Z,1.79
2018-12-26T12:25:57.000Z,1.79
2018-12-26T12:26:56.857Z,1.77
2018-12-26T12:27:56.844Z,1.77
2018-12-26T12:28:56.836Z,1.75
2018-12-26T12:29:56.828Z,1.77
2018-12-26T12:30:56.812Z,1.75
2018-12-26T12:31:56.800Z,1.77
2018-12-26T12:32:56.793Z,1.75
2018-12-26T12:33:56.783Z,1.77
2018-12-26T12:34:56.767Z,1.77
2018-12-26T12:35:56.760Z,1.82
2018-12-26T12:36:56.750Z,1.82
2018-12-26T12:37:56.735Z,1.83
2018-12-26T12:38:56.725Z,1.86
2018-12-26T12:39:56.717Z,1.90
2018-12-26T12:40:56.703Z,1.89
2018-12-26T12:41:56.694Z,1.90
2018-12-26T12:42:56.683Z,1.93
2018-12-26T12:43:56.673Z,1.95
2018-12-26T12:44:56.664Z,1.97
2018-12-26T12:45:56.649Z,2.00
2018-12-26T12:46:56.638Z,2.01
2018-12-26T12:47:56.629Z,2.04
2018-12-26T12:48:56.618Z,2.07
2018-12-26T12:49:56.609Z,2.08
2018-12-26T12:50:56.595Z,2.13
2018-12-26T12:51:56.587Z,2.14
2018-12-26T12:52:56.576Z,2.19
2018-12-26T12:53:56.577Z,2.24
2018-12-26T12:54:56.553Z,2.26
2018-12-26T12:55:56.548Z,2.25
2018-12-26T12:56:56.534Z,2.29
2018-12-26T12:57:56.524Z,2.36
2018-12-26T12:58:56.511Z,2.37
2018-12-26T12:59:56.503Z,2.39
2018-12-26T13:00:56.489Z,2.40
2018-12-26T13:01:56.477Z,2.43
2018-12-26T13:03:00.361Z,2.44
2018-12-26T13:03:56.458Z,2.46
2018-12-26T13:04:56.445Z,2.49
2018-12-26T13:05:56.436Z,2.52
2018-12-26T13:06:56.451Z,2.57
2018-12-26T13:07:56.415Z,2.62
2018-12-26T13:08:56.404Z,2.64
2018-12-26T13:09:56.391Z,2.64
2018-12-26T13:10:56.380Z,2.68
2018-12-26T13:11:56.369Z,2.71
2018-12-26T13:12:56.357Z,2.77
2018-12-26T13:13:56.349Z,2.80
2018-12-26T13:14:56.337Z,2.83
2018-12-26T13:15:56.325Z,2.83
2018-12-26T13:16:56.318Z,2.83
2018-12-26T13:17:56.304Z,2.80
2018-12-26T13:18:56.295Z,2.79
2018-12-26T13:19:56.281Z,2.77
2018-12-26T13:20:56.271Z,2.80
2018-12-26T13:21:56.261Z,2.81
2018-12-26T13:22:56.250Z,2.84
2018-12-26T13:23:56.238Z,2.89
2018-12-26T13:24:56.232Z,2.95
2018-12-26T13:25:56.218Z,2.97
2018-12-26T13:26:56.210Z,2.98
2018-12-26T13:27:56.196Z,2.99
2018-12-26T13:28:56.185Z,2.98
2018-12-26T13:29:56.175Z,2.98
2018-12-26T13:31:04.884Z,3.02
2018-12-26T13:32:17.354Z,3.10
2018-12-26T13:33:17.332Z,3.13
2018-12-26T13:34:17.322Z,3.13
2018-12-26T13:35:17.313Z,3.13
2018-12-26T13:36:17.302Z,3.17
2018-12-26T13:37:17.292Z,3.22
2018-12-26T13:38:17.284Z,3.25
2018-12-26T13:39:17.273Z,3.28
2018-12-26T13:40:17.265Z,3.31
2018-12-26T13:41:17.247Z,3.33
2018-12-26T13:42:17.237Z,3.31
2018-12-26T13:43:17.224Z,3.34
2018-12-26T13:44:17.214Z,3.33
2018-12-26T13:45:17.206Z,3.31
2018-12-26T13:46:17.192Z,3.28
2018-12-26T13:47:17.183Z,3.25
2018-12-26T13:48:17.169Z,3.23
2018-12-26T13:49:17.161Z,3.25
2018-12-26T13:50:17.148Z,3.20
2018-12-26T13:51:17.137Z,3.20
2018-12-26T13:52:17.128Z,3.19
2018-12-26T13:53:17.115Z,3.19
2018-12-26T13:54:17.110Z,3.25
2018-12-26T13:55:17.097Z,3.26
2018-12-26T13:56:17.083Z,3.30
2018-12-26T13:57:17.076Z,3.33
2018-12-26T13:58:17.062Z,3.34
2018-12-26T13:59:17.052Z,3.35
2018-12-26T14:00:17.039Z,3.37
2018-12-26T14:01:17.029Z,3.37
2018-12-26T14:02:17.018Z,3.38
2018-12-26T14:03:17.012Z,3.41
2018-12-26T14:04:16.995Z,3.41
2018-12-26T14:05:16.987Z,3.40
2018-12-26T14:06:16.980Z,3.43
2018-12-26T14:07:16.963Z,3.44
2018-12-26T14:08:16.953Z,3.43
2018-12-26T14:09:16.945Z,3.44
2018-12-26T14:10:16.932Z,3.43
2018-12-26T14:11:16.921Z,3.41
2018-12-26T14:12:16.911Z,3.40
2018-12-26T14:13:16.902Z,3.37
2018-12-26T14:14:16.890Z,3.37
2018-12-26T14:15:16.885Z,3.34
2018-12-26T14:16:16.868Z,3.35
2018-12-26T14:17:16.857Z,3.35
2018-12-26T14:18:16.844Z,3.37
2018-12-26T14:19:16.836Z,3.35
2018-12-26T14:20:16.825Z,3.43
2018-12-26T14:21:16.813Z,3.48
2018-12-26T14:22:16.814Z,3.52
2018-12-26T14:23:16.793Z,3.52
2018-12-26T14:24:16.780Z,3.51
2018-12-26T14:25:16.770Z,3.53
2018-12-26T14:26:16.762Z,3.55
2018-12-26T14:27:16.748Z,3.53
2018-12-26T14:28:16.737Z,3.49
2018-12-26T14:29:16.729Z,3.49
2018-12-26T14:30:16.715Z,3.49
2018-12-26T14:31:16.706Z,3.49
2018-12-26T14:32:16.697Z,3.43
2018-12-26T14:33:16.684Z,3.40
2018-12-26T14:34:16.676Z,3.40
2018-12-26T14:35:16.663Z,3.40
2018-12-26T14:36:16.653Z,3.43
2018-12-26T14:37:16.640Z,3.43
2018-12-26T14:38:16.630Z,3.44
2018-12-26T14:39:16.619Z,3.45
2018-12-26T14:40:16.608Z,3.44
2018-12-26T14:41:16.597Z,3.40
2018-12-26T14:42:16.585Z,3.41
2018-12-26T14:43:16.577Z,3.40
2018-12-26T14:44:16.564Z,3.37
2018-12-26T14:45:16.552Z,3.40
2018-12-26T14:46:16.543Z,3.38
2018-12-26T14:47:16.532Z,3.37
2018-12-26T14:48:16.522Z,3.35
2018-12-26T14:49:16.515Z,3.35
2018-12-26T14:50:16.500Z,3.31
2018-12-26T14:51:16.490Z,3.30
2018-12-26T14:52:16.517Z,3.30
2018-12-26T14:53:16.465Z,3.30
2018-12-26T14:54:16.457Z,3.28
2018-12-26T14:55:16.445Z,3.30
2018-12-26T14:56:16.433Z,3.30
2018-12-26T14:57:16.421Z,3.33
2018-12-26T14:58:16.410Z,3.31
2018-12-26T14:59:16.462Z,3.31
2018-12-26T15:00:20.033Z,3.30
2018-12-26T15:01:16.377Z,3.26
2018-12-26T15:02:16.370Z,3.26
2018-12-26T15:03:16.358Z,3.25
2018-12-26T15:04:16.346Z,3.22
2018-12-26T15:05:16.428Z,3.22
2018-12-26T15:06:16.320Z,3.22
2018-12-26T15:07:16.314Z,3.23
2018-12-26T15:08:16.301Z,3.23
2018-12-26T15:09:16.288Z,3.23
2018-12-26T15:10:16.278Z,3.22
2018-12-26T15:11:16.267Z,3.17
2018-12-26T15:12:16.256Z,3.15
2018-12-26T15:13:16.247Z,3.15
2018-12-26T15:14:16.232Z,3.16
2018-12-26T15:15:16.224Z,3.16
2018-12-26T15:16:16.211Z,3.16
2018-12-26T15:17:16.200Z,3.19
2018-12-26T15:18:16.190Z,3.22
2018-12-26T15:19:16.179Z,3.26
2018-12-26T15:20:16.167Z,3.26
2018-12-26T15:21:16.155Z,3.28
2018-12-26T15:22:16.150Z,3.31
2018-12-26T15:23:16.134Z,3.31
2018-12-26T15:24:16.125Z,3.33
2018-12-26T15:25:16.115Z,3.33
2018-12-26T15:26:16.100Z,3.31
2018-12-26T15:27:16.092Z,3.31
2018-12-26T15:28:16.080Z,3.28
2018-12-26T15:29:16.069Z,3.25
2018-12-26T15:30:16.059Z,3.25
2018-12-26T15:31:16.047Z,3.19
2018-12-26T15:32:16.035Z,3.16
2018-12-26T15:33:16.025Z,3.12
2018-12-26T15:34:16.013Z,3.05
2018-12-26T15:35:16.002Z,2.98
2018-12-26T15:36:15.990Z,2.95
2018-12-26T15:37:15.979Z,2.89
2018-12-26T15:38:15.970Z,2.83
2018-12-26T15:39:15.960Z,2.80
2018-12-26T15:40:15.947Z,2.79
2018-12-26T15:41:15.935Z,2.77
2018-12-26T15:42:15.928Z,2.76
2018-12-26T15:43:15.913Z,2.74
2018-12-26T15:44:15.903Z,2.74
2018-12-26T15:45:15.893Z,2.71
2018-12-26T15:46:15.882Z,2.68
2018-12-26T15:47:15.871Z,2.64
2018-12-26T15:48:15.861Z,2.62
2018-12-26T15:49:15.848Z,2.62
2018-12-26T15:50:15.839Z,2.58
2018-12-26T15:51:15.827Z,2.55
2018-12-26T15:52:15.816Z,2.55
2018-12-26T15:53:15.806Z,2.50
2018-12-26T15:54:15.796Z,2.44
2018-12-26T15:55:15.782Z,2.44
2018-12-26T15:56:15.773Z,2.43
2018-12-26T15:57:15.761Z,2.47
2018-12-26T15:58:15.749Z,2.44
2018-12-26T15:59:15.746Z,2.46
2018-12-26T16:00:15.728Z,2.43
2018-12-26T16:01:15.718Z,2.40
2018-12-26T16:02:15.706Z,2.36
2018-12-26T16:03:15.696Z,2.31
2018-12-26T16:04:15.686Z,2.28
2018-12-26T16:05:15.722Z,2.28
2018-12-26T16:06:15.664Z,2.29
2018-12-26T16:07:15.652Z,2.31
2018-12-26T16:08:15.644Z,2.29
2018-12-26T16:09:15.631Z,2.26
2018-12-26T16:10:15.620Z,2.24
2018-12-26T16:11:15.610Z,2.21
2018-12-26T16:12:15.602Z,2.21
2018-12-26T16:13:15.586Z,2.19
2018-12-26T16:14:15.578Z,2.21
2018-12-26T16:15:15.565Z,2.19
2018-12-26T16:16:15.553Z,2.19
2018-12-26T16:17:15.544Z,2.17
2018-12-26T16:18:15.531Z,2.13
2018-12-26T16:19:15.522Z,2.11
2018-12-26T16:20:15.512Z,2.07
2018-12-26T16:21:15.498Z,2.06
2018-12-26T16:22:15.491Z,2.03
2018-12-26T16:23:15.479Z,2.00
2018-12-26T16:24:15.467Z,1.97
2018-12-26T16:25:15.460Z,1.93
2018-12-26T16:26:15.444Z,1.92
2018-12-26T16:27:15.435Z,1.89
2018-12-26T16:28:15.427Z,1.89
2018-12-26T16:29:15.412Z,1.92
2018-12-26T16:30:15.400Z,1.92
2018-12-26T16:31:15.396Z,1.92
2018-12-26T16:32:15.382Z,1.92
2018-12-26T16:33:15.369Z,1.92
2018-12-26T16:34:15.356Z,1.89
2018-12-26T16:35:15.348Z,1.86
2018-12-26T16:36:15.337Z,1.85
2018-12-26T16:37:15.323Z,1.83
2018-12-26T16:38:15.315Z,1.85
2018-12-26T16:39:15.305Z,1.83
2018-12-26T16:40:15.290Z,1.83
2018-12-26T16:41:15.281Z,1.81
2018-12-26T16:42:16.909Z,1.82
2018-12-26T16:43:15.261Z,1.81
2018-12-26T16:44:15.250Z,1.75
2018-12-26T16:45:15.236Z,1.72
2018-12-26T16:46:15.227Z,1.70
2018-12-26T16:47:15.217Z,1.72
2018-12-26T16:48:15.203Z,1.71
2018-12-26T16:49:15.193Z,1.70
2018-12-26T16:50:15.182Z,1.70
2018-12-26T16:51:15.173Z,1.70
2018-12-26T16:52:15.162Z,1.68
2018-12-26T16:53:15.149Z,1.67
2018-12-26T16:54:15.143Z,1.67
2018-12-26T16:55:15.130Z,1.68
2018-12-26T16:56:15.116Z,1.67
2018-12-26T16:57:15.109Z,1.67
2018-12-26T16:58:15.101Z,1.67
2018-12-26T16:59:15.086Z,1.65
2018-12-26T17:00:15.159Z,1.64
2018-12-26T17:01:15.063Z,1.65
2018-12-26T17:02:15.052Z,1.64
2018-12-26T17:03:15.045Z,1.63
2018-12-26T17:04:15.030Z,1.63
2018-12-26T17:05:15.020Z,1.60
2018-12-26T17:06:15.011Z,1.60
2018-12-26T17:07:14.996Z,1.56
2018-12-26T17:08:14.988Z,1.54
2018-12-26T17:09:14.977Z,1.50
2018-12-26T17:10:14.967Z,1.44
2018-12-26T17:11:14.956Z,1.42
2018-12-26T17:12:14.943Z,1.39
2018-12-26T17:13:14.933Z,1.36
2018-12-26T17:14:14.922Z,1.39
2018-12-26T17:15:14.911Z,1.39
2018-12-26T17:16:14.906Z,1.36
2018-12-26T17:17:14.890Z,1.34
2018-12-26T17:18:14.879Z,1.32
2018-12-26T17:19:14.869Z,1.28
2018-12-26T17:20:14.858Z,1.25
2018-12-26T17:21:14.848Z,1.20
2018-12-26T17:22:14.841Z,1.25
2018-12-26T17:23:14.824Z,1.25
2018-12-26T17:24:16.623Z,1.25
2018-12-26T17:25:14.869Z,1.25
2018-12-26T17:26:14.791Z,1.26
2018-12-26T17:27:14.783Z,1.26
2018-12-26T17:28:14.771Z,1.25
2018-12-26T17:29:14.760Z,1.20
2018-12-26T17:30:14.751Z,1.19
2018-12-26T17:31:14.737Z,1.17
2018-12-26T17:32:14.727Z,1.15
2018-12-26T17:33:14.716Z,1.10
2018-12-26T17:34:14.704Z,1.12
2018-12-26T17:35:14.692Z,1.12
2018-12-26T17:36:14.681Z,1.13
2018-12-26T17:37:14.698Z,1.15
2018-12-26T17:38:14.660Z,1.15
2018-12-26T17:39:14.654Z,1.12
2018-12-26T17:40:14.638Z,1.07
2018-12-26T17:41:14.629Z,1.06
2018-12-26T17:42:14.616Z,1.05
2018-12-26T17:43:14.714Z,1.01
2018-12-26T17:44:14.595Z,1.01
2018-12-26T17:45:14.584Z,0.98
2018-12-26T17:46:14.575Z,0.95
2018-12-26T17:47:14.563Z,0.97
2018-12-26T17:48:14.550Z,0.92
2018-12-26T17:49:14.542Z,0.92
2018-12-26T17:50:14.536Z,0.91
2018-12-26T17:51:14.521Z,0.92
2018-12-26T17:52:14.507Z,0.94
2018-12-26T17:53:14.498Z,0.91
2018-12-26T17:54:14.489Z,0.88
2018-12-26T17:55:14.477Z,0.85
2018-12-26T17:56:14.465Z,0.83
2018-12-26T17:57:14.455Z,0.80
2018-12-26T17:58:14.443Z,0.77
2018-12-26T17:59:14.433Z,0.79
2018-12-26T18:00:14.422Z,0.76
2018-12-26T18:01:14.412Z,0.76
2018-12-26T18:02:14.404Z,0.73
2018-12-26T18:03:14.390Z,0.73
2018-12-26T18:04:14.380Z,0.70
2018-12-26T18:05:14.368Z,0.69
2018-12-26T18:06:14.357Z,0.70
2018-12-26T18:07:14.347Z,0.74
2018-12-26T18:08:14.335Z,0.77
2018-12-26T18:09:14.327Z,0.79
2018-12-26T18:10:14.316Z,0.79
2018-12-26T18:11:14.303Z,0.81
2018-12-26T18:12:14.294Z,0.79
2018-12-26T18:13:14.284Z,0.77
2018-12-26T18:14:14.273Z,0.80
2018-12-26T18:15:14.260Z,0.85
2018-12-26T18:16:14.251Z,0.83
2018-12-26T18:17:14.241Z,0.83
2018-12-26T18:18:14.227Z,0.83
2018-12-26T18:19:14.217Z,0.83
2018-12-26T18:20:14.206Z,0.80
2018-12-26T18:21:14.195Z,0.80
2018-12-26T18:22:14.184Z,0.81
2018-12-26T18:23:14.175Z,0.79
2018-12-26T18:24:14.164Z,0.80
2018-12-26T18:25:14.152Z,0.79
2018-12-26T18:26:14.144Z,0.79
2018-12-26T18:27:14.129Z,0.83
2018-12-26T18:28:14.119Z,0.88
2018-12-26T18:29:14.108Z,0.89
2018-12-26T18:30:14.098Z,0.88
2018-12-26T18:31:21.852Z,0.88
2018-12-26T18:32:15.091Z,0.91
2018-12-26T18:33:14.067Z,0.89
2018-12-26T18:34:14.056Z,0.88
2018-12-26T18:35:14.044Z,0.81
2018-12-26T18:36:14.036Z,0.76
2018-12-26T18:37:14.022Z,0.73
2018-12-26T18:38:14.016Z,0.69
2018-12-26T18:39:14.001Z,0.69
2018-12-26T18:40:13.991Z,0.70
2018-12-26T18:41:13.979Z,0.71
2018-12-26T18:42:13.971Z,0.71
2018-12-26T18:43:13.960Z,0.73
2018-12-26T18:44:13.948Z,0.79
2018-12-26T18:45:13.939Z,0.81
2018-12-26T18:46:13.929Z,0.80
2018-12-26T18:47:13.917Z,0.80
2018-12-26T18:48:13.905Z,0.80
2018-12-26T18:49:13.897Z,0.83
2018-12-26T18:50:13.901Z,0.87
2018-12-26T18:51:13.874Z,0.89
2018-12-26T18:52:13.862Z,0.92
2018-12-26T18:53:13.852Z,0.91
2018-12-26T18:54:13.842Z,0.87
2018-12-26T18:55:13.830Z,0.87
2018-12-26T18:56:13.836Z,0.85
2018-12-26T18:57:13.808Z,0.83
2018-12-26T18:58:13.799Z,0.83
2018-12-26T18:59:13.787Z,0.87
2018-12-26T19:00:13.777Z,0.87
2018-12-26T19:01:13.768Z,0.87
2018-12-26T19:02:13.753Z,0.87
2018-12-26T19:03:13.747Z,0.87
2018-12-26T19:04:13.734Z,0.91
2018-12-26T19:05:13.720Z,0.88
2018-12-26T19:06:13.711Z,0.85
2018-12-26T19:07:13.701Z,0.83
2018-12-26T19:08:13.690Z,0.83
2018-12-26T19:09:13.679Z,0.83
2018-12-26T19:10:13.667Z,0.83
2018-12-26T19:11:13.655Z,0.85
2018-12-26T19:12:13.647Z,0.85
2018-12-26T19:13:13.635Z,0.87
2018-12-26T19:14:13.626Z,0.87
2018-12-26T19:15:13.614Z,0.85
2018-12-26T19:16:13.608Z,0.81
2018-12-26T19:17:13.593Z,0.81
2018-12-26T19:18:13.582Z,0.81
2018-12-26T19:19:13.569Z,0.80
2018-12-26T19:20:13.562Z,0.79
2018-12-26T19:21:13.556Z,0.80
2018-12-26T19:22:13.538Z,0.81
2018-12-26T19:23:13.525Z,0.80
2018-12-26T19:24:13.517Z,0.81
2018-12-26T19:25:13.513Z,0.80
2018-12-26T19:26:13.502Z,0.77
2018-12-26T19:27:13.486Z,0.77
2018-12-26T19:28:13.475Z,0.79
2018-12-26T19:29:13.467Z,0.83
2018-12-26T19:30:13.453Z,0.83
2018-12-26T19:31:13.442Z,0.81
2018-12-26T19:32:13.432Z,0.80
2018-12-26T19:33:13.419Z,0.80
2018-12-26T19:34:13.407Z,0.81
2018-12-26T19:35:13.398Z,0.80
2018-12-26T19:36:13.388Z,0.79
2018-12-26T19:37:13.375Z,0.81
2018-12-26T19:38:13.376Z,0.85
2018-12-26T19:39:13.355Z,0.88
2018-12-26T19:40:13.348Z,0.89
2018-12-26T19:41:13.336Z,0.89
2018-12-26T19:42:13.324Z,0.87
2018-12-26T19:43:13.311Z,0.83
2018-12-26T19:44:13.303Z,0.77
2018-12-26T19:45:13.292Z,0.79
2018-12-26T19:46:13.279Z,0.77
2018-12-26T19:47:13.270Z,0.76
2018-12-26T19:48:13.260Z,0.73
2018-12-26T19:49:13.249Z,0.77
2018-12-26T19:50:13.238Z,0.77
2018-12-26T19:51:13.228Z,0.79
2018-12-26T19:52:13.215Z,0.80
2018-12-26T19:53:14.980Z,0.79
2018-12-26T19:54:13.193Z,0.77
2018-12-26T19:55:13.185Z,0.76
2018-12-26T19:56:13.174Z,0.73
2018-12-26T19:57:13.161Z,0.69
2018-12-26T19:58:13.152Z,0.66
2018-12-26T19:59:13.140Z,0.66
2018-12-26T20:00:13.130Z,0.62
2018-12-26T20:01:13.120Z,0.59
2018-12-26T20:02:13.107Z,0.58
2018-12-26T20:03:13.100Z,0.56
2018-12-26T20:04:13.087Z,0.55
2018-12-26T20:05:13.077Z,0.56
2018-12-26T20:06:13.064Z,0.59
2018-12-26T20:07:13.055Z,0.61
2018-12-26T20:08:13.044Z,0.58
2018-12-26T20:09:13.033Z,0.55
2018-12-26T20:10:13.020Z,0.55
2018-12-26T20:11:13.012Z,0.52
2018-12-26T20:12:13.002Z,0.51
2018-12-26T20:13:12.991Z,0.51
2018-12-26T20:14:12.979Z,0.53
2018-12-26T20:15:12.968Z,0.56
2018-12-26T20:16:12.957Z,0.56
2018-12-26T20:17:12.950Z,0.53
2018-12-26T20:18:12.935Z,0.56
2018-12-26T20:19:12.924Z,0.58
2018-12-26T20:20:12.914Z,0.61
2018-12-26T20:21:12.904Z,0.61
2018-12-26T20:22:12.894Z,0.61
2018-12-26T20:23:12.884Z,0.58
2018-12-26T20:24:12.872Z,0.56
2018-12-26T20:25:12.859Z,0.55
2018-12-26T20:26:12.851Z,0.56
2018-12-26T20:27:12.838Z,0.58
2018-12-26T20:28:12.828Z,0.62
2018-12-26T20:29:12.821Z,0.61
2018-12-26T20:30:12.811Z,0.58
2018-12-26T20:31:12.796Z,0.59
2018-12-26T20:32:12.785Z,0.59
2018-12-26T20:33:12.775Z,0.59
2018-12-26T20:34:12.766Z,0.56
2018-12-26T20:35:12.753Z,0.55
2018-12-26T20:36:12.743Z,0.56
2018-12-26T20:37:12.731Z,0.52
2018-12-26T20:38:12.722Z,0.49
2018-12-26T20:39:12.709Z,0.51
2018-12-26T20:40:12.696Z,0.51
2018-12-26T20:41:12.688Z,0.52
2018-12-26T20:42:12.675Z,0.55
2018-12-26T20:43:12.666Z,0.59
2018-12-26T20:44:12.658Z,0.61
2018-12-26T20:45:12.642Z,0.61
2018-12-26T20:46:12.633Z,0.62
2018-12-26T20:47:12.622Z,0.63
2018-12-26T20:48:12.609Z,0.67
2018-12-26T20:49:12.600Z,0.66
2018-12-26T20:50:12.588Z,0.61
2018-12-26T20:51:12.578Z,0.56
2018-12-26T20:52:12.570Z,0.58
2018-12-26T20:53:12.557Z,0.56
2018-12-26T20:54:12.544Z,0.53
2018-12-26T20:55:12.537Z,0.55
2018-12-26T20:56:12.522Z,0.51
2018-12-26T20:57:12.514Z,0.48
2018-12-26T20:58:12.503Z,0.44
2018-12-26T20:59:12.492Z,0.41
2018-12-26T21:00:12.485Z,0.40
2018-12-26T21:01:12.471Z,0.41
2018-12-26T21:02:12.458Z,0.44
2018-12-26T21:03:12.449Z,0.44
2018-12-26T21:04:12.439Z,0.44
2018-12-26T21:05:12.427Z,0.43
2018-12-26T21:06:12.415Z,0.43
2018-12-26T21:07:12.408Z,0.45
2018-12-26T21:08:12.394Z,0.45
2018-12-26T21:09:12.380Z,0.41
2018-12-26T21:10:12.372Z,0.41
2018-12-26T21:11:12.406Z,0.40
2018-12-26T21:12:12.350Z,0.43
2018-12-26T21:13:12.340Z,0.45
2018-12-26T21:14:12.326Z,0.51
2018-12-26T21:15:12.319Z,0.53
2018-12-26T21:16:12.309Z,0.56
2018-12-26T21:17:12.296Z,0.56
2018-12-26T21:18:12.286Z,0.56
2018-12-26T21:19:12.272Z,0.58
2018-12-26T21:20:13.566Z,0.59
2018-12-26T21:21:12.251Z,0.59
2018-12-26T21:22:12.242Z,0.55
2018-12-26T21:23:12.232Z,0.51
2018-12-26T21:24:12.222Z,0.53
2018-12-26T21:25:12.209Z,0.58
2018-12-26T21:26:12.198Z,0.62
2018-12-26T21:27:12.196Z,0.63
2018-12-26T21:28:12.175Z,0.63
2018-12-26T21:29:12.164Z,0.61
2018-12-26T21:30:12.156Z,0.59
2018-12-26T21:31:12.145Z,0.56
2018-12-26T21:32:14.243Z,0.55
2018-12-26T21:33:12.123Z,0.53
2018-12-26T21:34:12.112Z,0.55
2018-12-26T21:35:12.101Z,0.59
2018-12-26T21:36:12.088Z,0.61
2018-12-26T21:37:12.080Z,0.58
2018-12-26T21:38:12.068Z,0.61
2018-12-26T21:39:12.057Z,0.61
2018-12-26T21:40:12.049Z,0.62
2018-12-26T21:41:12.036Z,0.62
2018-12-26T21:42:12.027Z,0.66
2018-12-26T21:43:12.017Z,0.66
2018-12-26T21:44:12.004Z,0.66
2018-12-26T21:45:11.991Z,0.63
2018-12-26T21:46:11.983Z,0.59
2018-12-26T21:47:11.971Z,0.61
2018-12-26T21:48:11.967Z,0.62
2018-12-26T21:49:11.949Z,0.63
2018-12-26T21:50:11.938Z,0.62
2018-12-26T21:51:11.926Z,0.59
2018-12-26T21:52:11.916Z,0.58
2018-12-26T21:53:11.908Z,0.58
2018-12-26T21:54:11.895Z,0.59
2018-12-26T21:55:11.884Z,0.61
2018-12-26T21:56:11.874Z,0.59
2018-12-26T21:57:11.863Z,0.58
2018-12-26T21:58:11.853Z,0.61
2018-12-26T21:59:11.841Z,0.62
2018-12-26T22:00:11.833Z,0.62
2018-12-26T22:01:11.818Z,0.67
2018-12-26T22:02:11.807Z,0.69
2018-12-26T22:03:11.796Z,0.69
2018-12-26T22:04:11.789Z,0.70
2018-12-26T22:05:11.777Z,0.70
2018-12-26T22:06:11.765Z,0.71
2018-12-26T22:07:11.753Z,0.70
2018-12-26T22:08:11.744Z,0.73
2018-12-26T22:09:11.735Z,0.73
2018-12-26T22:10:11.724Z,0.71
2018-12-26T22:11:11.718Z,0.73
2018-12-26T22:12:11.701Z,0.73
2018-12-26T22:13:11.691Z,0.70
2018-12-26T22:14:11.681Z,0.71
2018-12-26T22:15:11.669Z,0.70
2018-12-26T22:16:11.659Z,0.73
2018-12-26T22:17:11.648Z,0.73
2018-12-26T22:18:11.637Z,0.74
2018-12-26T22:19:12.931Z,0.80
2018-12-26T22:20:11.614Z,0.81
2018-12-26T22:21:11.605Z,0.85
2018-12-26T22:22:11.593Z,0.87
2018-12-26T22:23:11.582Z,0.85
2018-12-26T22:24:11.572Z,0.87
2018-12-26T22:25:11.561Z,0.87
2018-12-26T22:26:11.550Z,0.87
2018-12-26T22:27:11.540Z,0.88
2018-12-26T22:28:11.529Z,0.89
2018-12-26T22:29:11.519Z,0.87
2018-12-26T22:30:11.508Z,0.89
2018-12-26T22:31:11.495Z,0.88
2018-12-26T22:32:11.484Z,0.89
2018-12-26T22:33:11.473Z,0.92
2018-12-26T22:34:11.463Z,0.97
2018-12-26T22:35:11.454Z,0.94
2018-12-26T22:36:11.440Z,0.94
2018-12-26T22:37:11.429Z,0.95
2018-12-26T22:38:11.418Z,0.97
2018-12-26T22:39:11.407Z,0.97
2018-12-26T22:40:11.397Z,0.99
2018-12-26T22:41:11.389Z,1.03
2018-12-26T22:42:11.376Z,1.05
2018-12-26T22:43:11.363Z,1.03
2018-12-26T22:44:11.355Z,1.01
2018-12-26T22:45:11.343Z,0.98
2018-12-26T22:46:11.332Z,0.99
2018-12-26T22:47:11.322Z,0.97
2018-12-26T22:48:11.343Z,0.97
2018-12-26T22:49:11.299Z,0.97
2018-12-26T22:50:11.289Z,0.97
2018-12-26T22:51:11.278Z,0.97
2018-12-26T22:52:11.270Z,0.97
2018-12-26T22:53:11.255Z,0.92
2018-12-26T22:54:11.246Z,0.89
2018-12-26T22:55:11.237Z,0.88
2018-12-26T22:56:11.224Z,0.91
2018-12-26T22:57:12.831Z,0.91
2018-12-26T22:58:11.203Z,0.91
2018-12-26T22:59:11.193Z,0.91
2018-12-26T23:00:11.182Z,0.91
2018-12-26T23:01:11.170Z,0.88
2018-12-26T23:02:12.586Z,0.88
2018-12-26T23:03:11.149Z,0.89
2018-12-26T23:04:11.140Z,0.88
2018-12-26T23:05:11.128Z,0.85
2018-12-26T23:06:11.119Z,0.87
2018-12-26T23:07:11.107Z,0.89
2018-12-26T23:08:11.097Z,0.91
2018-12-26T23:09:11.084Z,0.91
2018-12-26T23:10:11.075Z,0.88
2018-12-26T23:11:11.065Z,0.88
2018-12-26T23:12:11.058Z,0.85
2018-12-26T23:13:11.042Z,0.85
2018-12-26T23:14:11.031Z,0.83
2018-12-26T23:15:11.026Z,0.83
2018-12-26T23:16:11.009Z,0.81
2018-12-26T23:17:11.000Z,0.83
2018-12-26T23:18:10.987Z,0.83
2018-12-26T23:19:10.979Z,0.83